Allentown, Arizona
Current Conditions -  °F | °C
As of 2:53 AM on Friday 19 Dec 2014 (Local Time) from KRQE Reporting Station
Clear Clear  
Wind Chill: 24°   Ceiling: Unl
Heat Index: 24°   Visibility: 10mi
Dew Point: 19°   Wind: 3mph
Humidity: 81%   Direction: 10°N
Pressure: 30.19"   Gusts: NA
Location:  35.2918°N, 109.157°W
Report Text: KRQE 190953Z AUTO 01003KT 10SM CLR M04/M07 A3019 RMK AO2 SLP213 T10441072 TSNO
Loading
Personal Weather Stations






























Interactive Weather Map New forecast layout! Learn more

10-Day Weather Forecast

Advertisements
Track Severe Weather on mobile